createdAt,value
2022-08-12T00:02:38.226Z,19.60
2022-08-12T00:06:39.107Z,19.50
2022-08-12T00:10:39.481Z,19.30
2022-08-12T00:14:39.877Z,19.30
2022-08-12T00:18:40.372Z,19.10
2022-08-12T00:22:40.969Z,19.00
2022-08-12T00:26:41.405Z,19.00
2022-08-12T00:30:41.630Z,18.90
2022-08-12T00:34:42.041Z,18.80
2022-08-12T00:38:42.741Z,18.80
2022-08-12T00:42:24.461Z,18.70
2022-08-12T00:46:24.777Z,18.60
2022-08-12T00:50:06.902Z,18.60
2022-08-12T00:53:48.638Z,18.40
2022-08-12T00:57:31.154Z,18.40
2022-08-12T01:01:12.905Z,18.30
2022-08-12T01:05:14.219Z,18.30
2022-08-12T01:09:14.721Z,18.20
2022-08-12T01:13:07.273Z,18.10
2022-08-12T01:16:58.847Z,18.00
2022-08-12T01:20:43.677Z,18.00
2022-08-12T01:24:34.998Z,17.90
2022-08-12T01:28:16.687Z,17.90
2022-08-12T01:32:01.255Z,17.90
2022-08-12T01:35:58.070Z,17.80
2022-08-12T01:40:33.510Z,17.70
2022-08-12T01:43:54.039Z,17.60
2022-08-12T01:47:39.200Z,17.50
2022-08-12T01:52:14.782Z,17.50
2022-08-12T01:55:33.474Z,17.40
2022-08-12T01:59:42.534Z,17.30
2022-08-12T02:04:01.796Z,17.20
2022-08-12T02:08:01.955Z,17.10
2022-08-12T02:11:48.079Z,17.00
2022-08-12T02:15:47.186Z,16.90
2022-08-12T02:19:39.532Z,16.80
2022-08-12T02:23:23.312Z,16.70
2022-08-12T02:27:08.930Z,16.60
2022-08-12T02:30:51.041Z,16.50
2022-08-12T02:34:32.818Z,16.40
2022-08-12T02:38:15.694Z,16.30
2022-08-12T02:41:57.954Z,16.30
2022-08-12T02:45:46.336Z,16.20
2022-08-12T02:49:31.767Z,16.10
2022-08-12T02:53:13.829Z,16.00
2022-08-12T02:56:55.528Z,15.90
2022-08-12T03:00:37.699Z,15.90
2022-08-12T03:04:29.962Z,15.80
2022-08-12T03:08:12.208Z,15.70
2022-08-12T03:12:19.975Z,15.70
2022-08-12T03:16:02.121Z,15.60
2022-08-12T03:20:09.179Z,15.50
2022-08-12T03:23:47.527Z,15.40
2022-08-12T03:27:29.209Z,15.40
2022-08-12T03:31:10.968Z,15.30
2022-08-12T03:34:54.758Z,15.30
2022-08-12T03:38:38.366Z,15.10
2022-08-12T03:42:29.203Z,15.00
2022-08-12T03:46:33.161Z,14.90
2022-08-12T03:50:33.538Z,14.80
2022-08-12T03:54:33.999Z,14.70
2022-08-12T03:58:34.346Z,14.60
2022-08-12T04:02:16.171Z,14.50
2022-08-12T04:05:57.951Z,14.40
2022-08-12T04:09:40.717Z,14.30
2022-08-12T04:13:23.935Z,14.20
2022-08-12T04:17:05.654Z,14.20
2022-08-12T04:20:48.745Z,14.10
2022-08-12T04:24:31.639Z,14.10
2022-08-12T04:28:14.103Z,14.00
2022-08-12T04:31:56.064Z,13.90
2022-08-12T04:35:37.763Z,13.90
2022-08-12T04:39:19.507Z,13.80
2022-08-12T04:43:01.684Z,13.80
2022-08-12T04:46:43.770Z,13.70
2022-08-12T04:50:35.203Z,13.70
2022-08-12T04:54:18.165Z,13.60
2022-08-12T04:58:05.299Z,13.50
2022-08-12T05:01:51.514Z,13.50
2022-08-12T05:05:36.136Z,13.50
2022-08-12T05:09:18.157Z,13.40
2022-08-12T05:13:00.186Z,13.40
2022-08-12T05:16:41.901Z,13.40
2022-08-12T05:20:27.606Z,13.40
2022-08-12T05:24:11.477Z,13.50
2022-08-12T05:27:57.813Z,13.50
2022-08-12T05:31:47.899Z,13.50
2022-08-12T05:35:30.217Z,13.50
2022-08-12T05:39:11.963Z,13.50
2022-08-12T05:42:53.750Z,13.50
2022-08-12T05:46:35.879Z,13.60
2022-08-12T05:50:17.582Z,13.70
2022-08-12T05:54:00.079Z,13.70
2022-08-12T05:57:41.861Z,13.80
2022-08-12T06:02:09.457Z,13.90
2022-08-12T06:05:25.787Z,14.00
2022-08-12T06:09:10.089Z,14.10
2022-08-12T06:12:52.296Z,14.30
2022-08-12T06:16:35.324Z,14.40
2022-08-12T06:20:25.712Z,14.50
2022-08-12T06:24:14.198Z,14.70
2022-08-12T06:28:06.221Z,14.90
2022-08-12T06:31:52.955Z,15.10
2022-08-12T06:35:49.551Z,15.30
2022-08-12T06:39:31.769Z,15.40
2022-08-12T06:43:14.186Z,15.60
2022-08-12T06:46:56.816Z,15.80
2022-08-12T06:50:40.498Z,16.00
2022-08-12T06:54:31.326Z,16.20
2022-08-12T06:58:14.974Z,16.50
2022-08-12T07:01:56.699Z,16.80
2022-08-12T07:05:38.375Z,17.00
2022-08-12T07:10:04.375Z,17.30
2022-08-12T07:13:23.659Z,17.60
2022-08-12T07:17:07.517Z,17.80
2022-08-12T07:20:52.679Z,18.00
2022-08-12T07:24:35.023Z,18.30
2022-08-12T07:28:17.969Z,18.70
2022-08-12T07:31:59.730Z,19.30
2022-08-12T07:35:45.563Z,20.20
2022-08-12T07:39:29.724Z,21.20
2022-08-12T07:43:11.462Z,22.30
2022-08-12T07:46:53.177Z,23.30
2022-08-12T07:50:34.883Z,24.20
2022-08-12T07:54:16.895Z,25.20
2022-08-12T07:57:59.477Z,26.10
2022-08-12T08:01:42.334Z,26.90
2022-08-12T08:05:24.908Z,27.70
2022-08-12T08:09:06.623Z,28.40
2022-08-12T08:12:54.436Z,29.10
2022-08-12T08:16:40.789Z,29.80
2022-08-12T08:20:24.871Z,30.40
2022-08-12T08:24:15.646Z,31.10
2022-08-12T08:28:04.263Z,31.70
2022-08-12T08:31:50.408Z,32.30
2022-08-12T08:35:46.308Z,32.90
2022-08-12T08:39:31.454Z,33.50
2022-08-12T08:43:13.161Z,33.90
2022-08-12T08:46:55.659Z,34.50
2022-08-12T08:50:37.493Z,35.00
2022-08-12T08:54:19.230Z,35.50
2022-08-12T08:58:00.904Z,36.10
2022-08-12T09:01:44.480Z,36.60
2022-08-12T09:05:27.221Z,37.10
2022-08-12T09:14:11.948Z,38.10
2022-08-12T09:17:42.033Z,38.40
2022-08-12T09:21:24.975Z,38.70
2022-08-12T09:25:07.139Z,39.10
2022-08-12T09:28:52.956Z,39.60
2022-08-12T09:33:04.281Z,40.10
2022-08-12T09:36:58.341Z,40.40
2022-08-12T09:41:03.835Z,40.90
2022-08-12T09:45:18.361Z,41.20
2022-08-12T09:49:01.281Z,41.40
2022-08-12T09:52:46.202Z,41.80
2022-08-12T09:57:03.149Z,42.30
2022-08-12T10:00:48.334Z,43.00
2022-08-12T10:04:34.059Z,43.60
2022-08-12T10:08:16.666Z,44.10
2022-08-12T10:12:31.537Z,44.60
2022-08-12T10:16:18.673Z,45.10
2022-08-12T10:20:04.795Z,45.70
2022-08-12T10:23:56.720Z,46.10
2022-08-12T10:28:04.748Z,46.40
2022-08-12T10:32:21.684Z,46.70
2022-08-12T10:35:53.489Z,46.90
2022-08-12T10:40:08.153Z,47.50
2022-08-12T10:43:55.299Z,47.90
2022-08-12T10:48:19.870Z,48.60
2022-08-12T10:51:59.326Z,49.00
2022-08-12T10:55:42.007Z,49.40
2022-08-12T11:00:29.080Z,50.00
2022-08-12T11:04:34.191Z,50.20
2022-08-12T11:08:38.248Z,50.60
2022-08-12T11:12:35.967Z,51.20
2022-08-12T11:16:03.797Z,51.30
2022-08-12T11:19:40.860Z,50.30
2022-08-12T11:23:25.758Z,50.00
2022-08-12T11:27:18.955Z,49.80
2022-08-12T11:31:00.664Z,49.40
2022-08-12T11:34:53.194Z,49.50
2022-08-12T11:38:36.405Z,50.10
2022-08-12T11:42:18.092Z,50.10
2022-08-12T11:46:13.937Z,49.90
2022-08-12T11:50:00.245Z,50.00
2022-08-12T11:53:56.916Z,50.70
2022-08-12T11:59:11.337Z,51.30
2022-08-12T12:02:09.523Z,50.80
2022-08-12T12:05:51.254Z,50.50
2022-08-12T12:09:53.270Z,50.80
2022-08-12T12:14:07.521Z,51.60
2022-08-12T12:17:38.441Z,52.20
2022-08-12T12:21:47.106Z,53.00
2022-08-12T12:25:59.385Z,53.40
2022-08-12T12:30:18.828Z,53.20
2022-08-12T12:33:25.529Z,52.10
2022-08-12T12:37:11.133Z,51.40
2022-08-12T12:40:59.087Z,51.50
2022-08-12T12:44:50.752Z,52.40
2022-08-12T12:48:35.142Z,53.20
2022-08-12T12:52:20.927Z,53.10
2022-08-12T12:56:03.146Z,52.70
2022-08-12T13:00:07.962Z,52.00
2022-08-12T13:03:55.384Z,51.60
2022-08-12T13:07:54.263Z,51.90
2022-08-12T13:11:41.981Z,52.00
2022-08-12T13:15:45.172Z,52.80
2022-08-12T13:19:37.596Z,53.60
2022-08-12T13:23:36.226Z,52.90
2022-08-12T13:27:20.731Z,52.30
2022-08-12T13:31:03.107Z,52.10
2022-08-12T13:34:47.261Z,51.90
2022-08-12T13:38:35.569Z,51.00
2022-08-12T13:42:17.609Z,50.70
2022-08-12T13:46:00.334Z,51.40
2022-08-12T13:49:53.802Z,52.50
2022-08-12T13:53:40.288Z,53.00
2022-08-12T13:57:44.432Z,53.00
2022-08-12T14:01:26.559Z,52.40
2022-08-12T14:05:27.533Z,52.40
2022-08-12T14:09:15.723Z,52.70
2022-08-12T14:13:01.595Z,53.70
2022-08-12T14:16:48.913Z,53.20
2022-08-12T14:20:33.862Z,52.40
2022-08-12T14:24:15.552Z,51.90
2022-08-12T14:28:11.385Z,51.40
2022-08-12T14:31:53.217Z,52.00
2022-08-12T14:35:44.729Z,53.20
2022-08-12T14:39:28.490Z,54.30
2022-08-12T14:43:10.199Z,54.60
2022-08-12T14:46:55.764Z,54.90
2022-08-12T14:51:02.885Z,55.40
2022-08-12T14:59:23.318Z,55.50
2022-08-12T15:03:03.519Z,54.80
2022-08-12T15:06:52.739Z,53.60
2022-08-12T15:10:49.845Z,53.30
2022-08-12T15:14:37.990Z,53.00
2022-08-12T15:18:20.757Z,52.90
2022-08-12T15:22:37.064Z,52.90
2022-08-12T15:26:21.242Z,52.90
2022-08-12T15:30:10.866Z,53.50
2022-08-12T15:33:52.864Z,54.20
2022-08-12T15:38:08.285Z,54.80
2022-08-12T15:41:49.542Z,55.20
2022-08-12T15:45:32.902Z,55.40
2022-08-12T15:49:17.148Z,55.60
2022-08-12T15:52:59.140Z,55.40
2022-08-12T15:56:55.861Z,54.90
2022-08-12T16:00:38.326Z,54.80
2022-08-12T16:04:20.020Z,54.70
2022-08-12T16:08:02.074Z,54.70
2022-08-12T16:11:43.738Z,54.90
2022-08-12T16:15:29.591Z,55.00
2022-08-12T16:20:03.541Z,54.50
2022-08-12T16:23:50.930Z,53.70
2022-08-12T16:27:25.560Z,53.10
2022-08-12T16:31:10.142Z,52.60
2022-08-12T16:34:57.724Z,51.60
2022-08-12T16:38:39.890Z,50.80
2022-08-12T16:42:28.782Z,50.60
2022-08-12T16:46:31.911Z,50.50
2022-08-12T16:50:16.406Z,50.50
2022-08-12T16:53:58.092Z,50.00
2022-08-12T16:57:42.577Z,49.50
2022-08-12T17:01:24.298Z,49.30
2022-08-12T17:05:07.769Z,49.10
2022-08-12T17:08:55.722Z,48.90
2022-08-12T17:12:38.366Z,48.80
2022-08-12T17:16:20.462Z,48.80
2022-08-12T17:20:35.519Z,48.80
2022-08-12T17:24:08.374Z,48.70
2022-08-12T17:27:57.213Z,48.70
2022-08-12T17:32:01.073Z,48.60
2022-08-12T17:35:43.146Z,48.30
2022-08-12T17:40:15.932Z,48.20
2022-08-12T17:43:55.673Z,47.90
2022-08-12T17:48:01.084Z,47.50
2022-08-12T17:51:49.809Z,47.00
2022-08-12T17:55:40.696Z,46.50
2022-08-12T17:59:49.025Z,46.10
2022-08-12T18:03:58.296Z,45.70
2022-08-12T18:07:31.040Z,45.10
2022-08-12T18:12:04.382Z,44.70
2022-08-12T18:16:04.091Z,44.10
2022-08-12T18:20:04.832Z,43.50
2022-08-12T18:23:50.795Z,42.70
2022-08-12T18:27:45.723Z,41.50
2022-08-12T18:31:43.842Z,40.50
2022-08-12T18:35:47.302Z,39.80
2022-08-12T18:39:53.378Z,38.60
2022-08-12T18:43:57.701Z,37.60
2022-08-12T18:47:50.126Z,36.70
2022-08-12T18:51:45.749Z,35.60
2022-08-12T18:55:37.316Z,34.60
2022-08-12T19:00:01.172Z,33.90
2022-08-12T19:03:39.773Z,33.30
2022-08-12T19:07:23.611Z,32.90
2022-08-12T19:11:24.039Z,32.60
2022-08-12T19:15:09.268Z,32.30
2022-08-12T19:18:52.472Z,32.00
2022-08-12T19:22:34.239Z,31.60
2022-08-12T19:26:21.494Z,31.30
2022-08-12T19:30:12.441Z,30.90
2022-08-12T19:34:25.599Z,30.60
2022-08-12T19:38:06.356Z,30.30
2022-08-12T19:42:00.717Z,30.00
2022-08-12T19:45:48.446Z,29.80
2022-08-12T19:49:30.857Z,29.60
2022-08-12T19:53:13.570Z,29.30
2022-08-12T19:57:01.464Z,29.10
2022-08-12T20:00:43.177Z,28.80
2022-08-12T20:04:24.849Z,28.50
2022-08-12T20:08:09.241Z,28.20
2022-08-12T20:12:11.455Z,28.10
2022-08-12T20:15:59.723Z,27.90
2022-08-12T20:20:01.485Z,27.70
2022-08-12T20:24:00.375Z,27.60
2022-08-12T20:28:05.586Z,27.50
2022-08-12T20:31:45.197Z,27.30
2022-08-12T20:36:06.989Z,27.10
2022-08-12T20:39:52.079Z,27.00
2022-08-12T20:43:32.193Z,26.70
2022-08-12T20:47:19.846Z,26.50
2022-08-12T20:51:04.363Z,26.30
2022-08-12T20:54:52.930Z,26.10
2022-08-12T20:58:35.798Z,25.90
2022-08-12T21:02:24.726Z,25.70
2022-08-12T21:06:31.060Z,25.60
2022-08-12T21:10:12.812Z,25.40
2022-08-12T21:13:59.148Z,25.20
2022-08-12T21:18:08.093Z,25.00
2022-08-12T21:21:50.337Z,24.90
2022-08-12T21:25:44.350Z,24.70
2022-08-12T21:29:26.705Z,24.50
2022-08-12T21:33:14.627Z,24.40
2022-08-12T21:37:26.810Z,24.20
2022-08-12T21:41:15.739Z,24.10
2022-08-12T21:45:45.456Z,24.00
2022-08-12T21:49:04.885Z,23.80
2022-08-12T21:52:49.171Z,23.60
2022-08-12T21:56:34.265Z,23.50
2022-08-12T22:00:19.012Z,23.40
2022-08-12T22:04:19.578Z,23.20
2022-08-12T22:08:01.225Z,23.10
2022-08-12T22:11:43.861Z,23.00
2022-08-12T22:15:30.660Z,22.80
2022-08-12T22:19:12.330Z,22.70
2022-08-12T22:22:56.646Z,22.60
2022-08-12T22:26:38.940Z,22.40
2022-08-12T22:30:42.905Z,22.30
2022-08-12T22:34:33.339Z,22.20
2022-08-12T22:38:19.745Z,22.10
2022-08-12T22:42:20.192Z,22.00
2022-08-12T22:46:13.946Z,21.90
2022-08-12T22:49:59.503Z,21.80
2022-08-12T22:53:41.589Z,21.70
2022-08-12T22:57:26.377Z,21.60
2022-08-12T23:01:52.469Z,21.50
2022-08-12T23:05:56.685Z,21.50
2022-08-12T23:09:47.978Z,21.40
2022-08-12T23:13:46.506Z,21.30
2022-08-12T23:17:39.932Z,21.20
2022-08-12T23:21:23.701Z,21.20
2022-08-12T23:25:06.494Z,21.10
2022-08-12T23:29:30.051Z,21.00
2022-08-12T23:33:59.878Z,20.90
2022-08-12T23:37:20.411Z,20.80
2022-08-12T23:41:29.459Z,20.70
2022-08-12T23:45:31.782Z,20.70
2022-08-12T23:49:55.137Z,20.50
2022-08-12T23:53:22.390Z,20.50
2022-08-12T23:57:10.780Z,20.40
